createdAt,value
2023-01-05T00:01:14.430Z,100691.25
2023-01-05T00:05:17.605Z,100702.84
2023-01-05T00:09:20.984Z,100699.88
2023-01-05T00:13:41.507Z,100709.81
2023-01-05T00:18:03.233Z,100710.25
2023-01-05T00:22:34.619Z,100726.31
2023-01-05T00:26:37.733Z,100706.69
2023-01-05T00:30:42.690Z,100718.72
2023-01-05T00:34:47.601Z,100711.13
2023-01-05T00:38:50.737Z,100706.94
2023-01-05T00:42:53.790Z,100706.13
2023-01-05T00:46:56.865Z,100702.31
2023-01-05T00:51:01.944Z,100713.72
2023-01-05T00:55:05.648Z,100712.22
2023-01-05T00:59:08.933Z,100725.13
2023-01-05T01:03:12.143Z,100731.84
2023-01-05T01:07:16.618Z,100731.66
2023-01-05T01:11:19.887Z,100714.16
2023-01-05T01:15:22.954Z,100714.59
2023-01-05T01:19:27.327Z,100718.59
2023-01-05T01:23:31.764Z,100725.16
2023-01-05T01:27:34.989Z,100718.38
2023-01-05T01:31:38.066Z,100729.97
2023-01-05T01:35:41.120Z,100734.81
2023-01-05T01:39:46.161Z,100746.22
2023-01-05T01:43:53.333Z,100753.19
2023-01-05T01:48:00.190Z,100766.88
2023-01-05T01:52:03.672Z,100764.16
2023-01-05T01:56:11.300Z,100772.41
2023-01-05T02:00:15.394Z,100774.91
2023-01-05T02:04:21.940Z,100800.41
2023-01-05T02:08:31.281Z,100790.31
2023-01-05T02:12:46.092Z,100808.03
2023-01-05T02:17:03.458Z,100807.16
2023-01-05T02:21:20.720Z,100790.94
2023-01-05T02:25:55.118Z,100798.94
2023-01-05T02:31:01.109Z,100803.59
2023-01-05T02:35:21.442Z,100810.53
2023-01-05T02:39:29.568Z,100808.84
2023-01-05T02:43:33.294Z,100807.19
2023-01-05T02:47:40.932Z,100805.69
2023-01-05T02:51:50.522Z,100803.56
2023-01-05T02:55:58.545Z,100799.78
2023-01-05T03:00:08.155Z,100800.00
2023-01-05T03:04:18.782Z,100805.06
2023-01-05T03:08:32.346Z,100816.66
2023-01-05T03:12:57.031Z,100817.69
2023-01-05T03:17:04.185Z,100822.34
2023-01-05T03:21:10.475Z,100810.09
2023-01-05T03:25:32.925Z,100808.22
2023-01-05T03:29:54.708Z,100822.13
2023-01-05T03:34:21.428Z,100820.44
2023-01-05T03:38:32.033Z,100830.97
2023-01-05T03:42:38.501Z,100819.81
2023-01-05T03:46:42.349Z,100840.22
2023-01-05T03:50:46.165Z,100827.97
2023-01-05T03:54:52.858Z,100839.38
2023-01-05T03:58:56.325Z,100844.84
2023-01-05T04:03:01.274Z,100829.28
2023-01-05T04:07:04.797Z,100840.25
2023-01-05T04:11:17.115Z,100847.34
2023-01-05T04:15:26.762Z,100847.94
2023-01-05T04:19:31.400Z,100874.00
2023-01-05T04:23:35.604Z,100870.41
2023-01-05T04:27:41.418Z,100867.06
2023-01-05T04:31:45.059Z,100870.88
2023-01-05T04:35:49.993Z,100878.44
2023-01-05T04:39:55.007Z,100877.41
2023-01-05T04:43:59.780Z,100885.19
2023-01-05T04:48:03.778Z,100869.22
2023-01-05T04:52:07.856Z,100865.44
2023-01-05T04:56:11.759Z,100859.56
2023-01-05T05:00:20.035Z,100858.28
2023-01-05T05:04:26.647Z,100868.00
2023-01-05T05:08:29.754Z,100855.78
2023-01-05T05:12:35.019Z,100879.59
2023-01-05T05:16:39.822Z,100863.75
2023-01-05T05:20:46.668Z,100883.38
2023-01-05T05:24:49.868Z,100888.63
2023-01-05T05:28:53.109Z,100880.66
2023-01-05T05:32:57.671Z,100875.16
2023-01-05T05:37:00.785Z,100886.75
2023-01-05T05:41:03.864Z,100890.53
2023-01-05T05:45:08.024Z,100892.00
2023-01-05T05:49:12.610Z,100889.91
2023-01-05T05:53:15.713Z,100905.91
2023-01-05T05:57:18.812Z,100911.19
2023-01-05T06:01:21.960Z,100916.22
2023-01-05T06:05:26.398Z,100928.69
2023-01-05T06:09:29.535Z,100929.75
2023-01-05T06:13:32.826Z,100919.44
2023-01-05T06:17:35.944Z,100929.13
2023-01-05T06:21:40.408Z,100933.34
2023-01-05T06:25:43.987Z,100938.84
2023-01-05T06:29:47.042Z,100944.31
2023-01-05T06:33:50.083Z,100941.16
2023-01-05T06:37:54.494Z,100942.00
2023-01-05T06:41:57.607Z,100965.59
2023-01-05T06:46:00.697Z,100954.44
2023-01-05T06:50:03.851Z,100938.00
2023-01-05T06:54:08.308Z,100958.22
2023-01-05T06:58:11.441Z,100960.31
2023-01-05T07:02:16.258Z,100965.81
2023-01-05T07:06:19.611Z,100960.31
2023-01-05T07:10:24.073Z,100972.53
2023-01-05T07:14:27.160Z,100975.72
2023-01-05T07:18:30.495Z,100976.13
2023-01-05T07:22:33.853Z,100988.53
2023-01-05T07:26:38.493Z,100980.97
2023-01-05T07:30:41.660Z,100986.84
2023-01-05T07:34:51.186Z,100978.88
2023-01-05T07:38:59.643Z,100968.97
2023-01-05T07:43:04.809Z,100972.94
2023-01-05T07:47:07.975Z,100974.63
2023-01-05T07:51:11.779Z,100987.88
2023-01-05T07:55:15.140Z,100986.38
2023-01-05T07:59:19.827Z,101006.19
2023-01-05T08:03:23.488Z,101026.41
2023-01-05T08:07:26.612Z,101018.81
2023-01-05T08:11:29.756Z,101035.69
2023-01-05T08:15:34.264Z,101036.94
2023-01-05T08:19:37.337Z,101048.31
2023-01-05T08:23:40.537Z,101037.19
2023-01-05T08:27:43.677Z,101037.81
2023-01-05T08:31:48.224Z,101035.91
2023-01-05T08:35:51.305Z,101035.72
2023-01-05T08:39:54.426Z,101034.47
2023-01-05T08:43:59.710Z,101046.28
2023-01-05T08:48:04.218Z,101058.13
2023-01-05T08:52:08.331Z,101057.25
2023-01-05T08:56:12.018Z,101054.09
2023-01-05T09:00:17.407Z,101045.25
2023-01-05T09:04:21.913Z,101060.22
2023-01-05T09:08:25.304Z,101075.38
2023-01-05T09:12:32.952Z,101068.22
2023-01-05T09:21:01.393Z,101067.81
2023-01-05T09:25:05.553Z,101070.16
2023-01-05T09:29:08.866Z,101087.28
2023-01-05T09:33:12.026Z,101088.16
2023-01-05T09:37:16.571Z,101090.28
2023-01-05T09:41:23.940Z,101105.88
2023-01-05T09:45:28.792Z,101110.09
2023-01-05T09:49:34.999Z,101106.69
2023-01-05T09:53:41.163Z,101118.09
2023-01-05T09:57:49.493Z,101118.31
2023-01-05T10:01:55.512Z,101126.94
2023-01-05T10:06:00.221Z,101130.75
2023-01-05T10:10:10.043Z,101123.16
2023-01-05T10:14:17.571Z,101121.47
2023-01-05T10:18:25.256Z,101126.53
2023-01-05T10:22:41.553Z,101116.03
2023-01-05T10:31:24.685Z,101117.53
2023-01-05T10:36:02.409Z,101127.84
2023-01-05T10:40:21.048Z,101115.41
2023-01-05T10:44:53.299Z,101124.25
2023-01-05T10:48:56.431Z,101133.56
2023-01-05T10:53:02.341Z,101126.41
2023-01-05T10:57:37.388Z,101139.50
2023-01-05T11:01:46.127Z,101123.47
2023-01-05T11:05:49.725Z,101127.22
2023-01-05T11:09:52.997Z,101143.47
2023-01-05T11:13:58.875Z,101138.56
2023-01-05T11:18:05.384Z,101149.53
2023-01-05T11:22:29.384Z,101145.75
2023-01-05T11:26:35.325Z,101143.22
2023-01-05T11:30:39.595Z,101142.00
2023-01-05T11:34:46.036Z,101137.81
2023-01-05T11:38:55.462Z,101125.78
2023-01-05T11:43:00.299Z,101122.38
2023-01-05T11:47:03.895Z,101131.69
2023-01-05T11:51:08.433Z,101144.97
2023-01-05T11:55:34.140Z,101127.66
2023-01-05T11:59:39.240Z,101119.59
2023-01-05T12:04:01.508Z,101117.50
2023-01-05T12:08:11.589Z,101112.84
2023-01-05T12:12:33.481Z,101110.75
2023-01-05T12:16:46.626Z,101103.13
2023-01-05T12:20:57.698Z,101084.38
2023-01-05T12:25:10.240Z,101093.94
2023-01-05T12:34:14.085Z,101100.13
2023-01-05T12:38:46.197Z,101102.66
2023-01-05T12:43:01.825Z,101102.50
2023-01-05T12:47:23.956Z,101103.47
2023-01-05T12:51:34.519Z,101093.53
2023-01-05T12:55:43.342Z,101085.59
2023-01-05T12:59:55.888Z,101090.63
2023-01-05T13:04:04.021Z,101090.84
2023-01-05T13:08:16.144Z,101090.66
2023-01-05T13:12:20.286Z,101103.88
2023-01-05T13:16:27.479Z,101107.41
2023-01-05T13:20:41.055Z,101113.22
2023-01-05T13:24:53.354Z,101119.84
2023-01-05T13:28:56.907Z,101126.81
2023-01-05T13:33:18.633Z,101132.50
2023-01-05T13:37:55.638Z,101141.22
2023-01-05T13:42:27.515Z,101132.16
2023-01-05T13:46:48.896Z,101150.53
2023-01-05T13:51:13.422Z,101145.31
2023-01-05T13:55:25.885Z,101141.31
2023-01-05T13:59:44.167Z,101139.03
2023-01-05T14:03:55.041Z,101132.09
2023-01-05T14:08:03.141Z,101134.81
2023-01-05T14:12:28.578Z,101148.38
2023-01-05T14:16:55.887Z,101139.44
2023-01-05T14:20:59.266Z,101143.22
2023-01-05T14:25:38.247Z,101130.13
2023-01-05T14:30:04.093Z,101141.50
2023-01-05T14:34:15.350Z,101145.28
2023-01-05T14:38:23.174Z,101149.50
2023-01-05T14:42:33.436Z,101150.72
2023-01-05T14:46:57.815Z,101161.50
2023-01-05T14:51:23.903Z,101166.75
2023-01-05T14:55:38.382Z,101166.94
2023-01-05T14:59:44.009Z,101156.22
2023-01-05T15:03:54.570Z,101165.88
2023-01-05T15:08:09.159Z,101168.13
2023-01-05T15:12:32.904Z,101167.47
2023-01-05T15:16:56.392Z,101171.44
2023-01-05T15:21:33.715Z,101179.66
2023-01-05T15:26:07.647Z,101183.84
2023-01-05T15:30:23.353Z,101184.56
2023-01-05T15:34:31.040Z,101192.50
2023-01-05T15:38:46.163Z,101192.41
2023-01-05T15:42:51.178Z,101201.00
2023-01-05T15:46:56.283Z,101209.78
2023-01-05T15:51:00.124Z,101210.00
2023-01-05T15:55:14.501Z,101220.13
2023-01-05T15:59:31.126Z,101236.19
2023-01-05T16:03:36.456Z,101237.75
2023-01-05T16:07:43.697Z,101241.25
2023-01-05T16:11:49.948Z,101248.00
2023-01-05T16:15:56.058Z,101238.94
2023-01-05T16:20:03.839Z,101240.09
2023-01-05T16:24:15.749Z,101229.63
2023-01-05T16:28:23.128Z,101232.06
2023-01-05T16:32:36.935Z,101245.47
2023-01-05T16:36:40.119Z,101227.38
2023-01-05T16:40:59.977Z,101220.13
2023-01-05T16:45:09.371Z,101223.91
2023-01-05T16:49:35.000Z,101209.19
2023-01-05T16:53:43.707Z,101204.94
2023-01-05T16:57:46.718Z,101206.63
2023-01-05T17:01:51.231Z,101199.66
2023-01-05T17:05:55.818Z,101212.69
2023-01-05T17:09:59.940Z,101198.25
2023-01-05T17:14:04.114Z,101198.25
2023-01-05T17:18:17.186Z,101194.00
2023-01-05T17:22:20.721Z,101197.38
2023-01-05T17:26:26.389Z,101193.59
2023-01-05T17:30:29.526Z,101181.84
2023-01-05T17:34:34.024Z,101181.63
2023-01-05T17:38:37.373Z,101173.91
2023-01-05T17:42:43.675Z,101179.75
2023-01-05T17:46:49.252Z,101177.31
2023-01-05T17:50:54.537Z,101175.91
2023-01-05T17:54:57.782Z,101186.06
2023-01-05T17:59:01.172Z,101170.31
2023-01-05T18:03:04.439Z,101167.97
2023-01-05T18:11:17.800Z,101166.25
2023-01-05T18:15:21.161Z,101161.44
2023-01-05T18:19:24.399Z,101154.53
2023-01-05T18:23:28.929Z,101151.00
2023-01-05T18:27:35.494Z,101150.59
2023-01-05T18:31:41.741Z,101148.13
2023-01-05T18:35:45.290Z,101137.56
2023-01-05T18:39:49.939Z,101136.34
2023-01-05T18:43:53.370Z,101138.88
2023-01-05T18:47:58.075Z,101135.97
2023-01-05T18:52:01.154Z,101122.72
2023-01-05T18:56:08.672Z,101117.06
2023-01-05T19:00:13.165Z,101118.53
2023-01-05T19:04:17.926Z,101105.50
2023-01-05T19:08:21.065Z,101113.56
2023-01-05T19:12:25.730Z,101113.00
2023-01-05T19:16:31.686Z,101114.72
2023-01-05T19:20:34.759Z,101118.09
2023-01-05T19:24:37.906Z,101121.50
2023-01-05T19:28:45.253Z,101120.28
2023-01-05T19:32:48.317Z,101125.81
2023-01-05T19:36:51.476Z,101121.84
2023-01-05T19:40:54.626Z,101103.97
2023-01-05T19:44:59.236Z,101103.56
2023-01-05T19:49:02.369Z,101101.06
2023-01-05T19:53:05.492Z,101093.88
2023-01-05T19:57:08.577Z,101090.09
2023-01-05T20:01:15.072Z,101089.69
2023-01-05T20:05:18.345Z,101105.31
2023-01-05T20:09:22.225Z,101106.81
2023-01-05T20:13:25.419Z,101100.50
2023-01-05T20:17:29.863Z,101104.97
2023-01-05T20:21:33.563Z,101111.50
2023-01-05T20:25:37.887Z,101103.91
2023-01-05T20:29:41.485Z,101101.16
2023-01-05T20:33:46.263Z,101098.25
2023-01-05T20:37:49.380Z,101096.34
2023-01-05T20:41:54.626Z,101101.16
2023-01-05T20:45:57.824Z,101094.88
2023-01-05T20:50:02.400Z,101096.16
2023-01-05T20:54:09.037Z,101091.09
2023-01-05T20:58:12.115Z,101090.50
2023-01-05T21:02:23.679Z,101090.03
2023-01-05T21:06:29.453Z,101087.09
2023-01-05T21:10:32.627Z,101075.09
2023-01-05T21:14:35.897Z,101090.72
2023-01-05T21:18:39.048Z,101083.09
2023-01-05T21:22:43.501Z,101081.63
2023-01-05T21:26:46.651Z,101081.00
2023-01-05T21:30:49.791Z,101082.69
2023-01-05T21:34:52.961Z,101088.41
2023-01-05T21:39:00.917Z,101087.75
2023-01-05T21:43:06.431Z,101083.97
2023-01-05T21:47:09.582Z,101089.44
2023-01-05T21:51:29.945Z,101086.06
2023-01-05T21:55:53.551Z,101088.16
2023-01-05T21:59:56.628Z,101084.16
2023-01-05T22:03:59.766Z,101087.31
2023-01-05T22:08:02.900Z,101081.81
2023-01-05T22:12:09.131Z,101067.47
2023-01-05T22:16:12.336Z,101058.19
2023-01-05T22:20:16.100Z,101070.84
2023-01-05T22:24:19.406Z,101054.00
2023-01-05T22:28:23.897Z,101049.97
2023-01-05T22:32:27.061Z,101050.22
2023-01-05T22:36:31.510Z,101055.22
2023-01-05T22:40:34.853Z,101050.16
2023-01-05T22:44:39.601Z,101048.88
2023-01-05T22:48:46.061Z,101041.03
2023-01-05T22:52:49.832Z,101034.91
2023-01-05T22:56:52.943Z,101040.75
2023-01-05T23:00:57.360Z,101034.63
2023-01-05T23:05:01.911Z,101046.22
2023-01-05T23:09:08.312Z,101039.69
2023-01-05T23:13:11.372Z,101046.84
2023-01-05T23:17:15.912Z,101040.72
2023-01-05T23:21:20.697Z,101043.06
2023-01-05T23:25:23.788Z,101030.66
2023-01-05T23:29:27.464Z,101030.84
2023-01-05T23:33:35.440Z,101026.88
2023-01-05T23:37:38.607Z,101041.22
2023-01-05T23:41:41.689Z,101034.22
2023-01-05T23:45:45.415Z,101017.59
2023-01-05T23:49:49.871Z,101023.50
2023-01-05T23:53:54.587Z,101028.56
2023-01-05T23:57:57.707Z,101023.09
